createdAt,value
2019-05-26T00:00:21.506Z,11.77
2019-05-26T00:02:50.093Z,12.30
2019-05-26T00:05:19.185Z,8.60
2019-05-26T00:07:47.771Z,14.70
2019-05-26T00:10:17.155Z,11.63
2019-05-26T00:12:45.767Z,15.73
2019-05-26T00:15:16.007Z,14.10
2019-05-26T00:17:44.584Z,13.37
2019-05-26T00:20:14.708Z,10.43
2019-05-26T00:22:43.323Z,12.23
2019-05-26T00:25:14.204Z,14.57
2019-05-26T00:27:42.805Z,9.23
2019-05-26T00:30:12.904Z,12.30
2019-05-26T00:32:41.456Z,10.27
2019-05-26T00:35:10.202Z,9.53
2019-05-26T00:37:49.260Z,10.20
2019-05-26T00:40:10.405Z,12.50
2019-05-26T00:42:39.146Z,15.67
2019-05-26T00:45:09.348Z,11.27
2019-05-26T00:47:37.964Z,13.20
2019-05-26T00:50:08.666Z,10.47
2019-05-26T00:52:37.660Z,9.80
2019-05-26T00:55:08.443Z,14.40
2019-05-26T00:57:37.769Z,14.10
2019-05-26T01:00:11.070Z,13.37
2019-05-26T01:02:39.784Z,15.53
2019-05-26T01:05:09.732Z,10.97
2019-05-26T01:07:38.867Z,11.47
2019-05-26T01:10:09.612Z,13.37
2019-05-26T01:12:38.299Z,12.33
2019-05-26T01:15:09.139Z,12.73
2019-05-26T01:17:37.714Z,8.23
2019-05-26T01:20:07.039Z,13.50
2019-05-26T01:22:35.617Z,12.50
2019-05-26T01:25:07.141Z,14.37
2019-05-26T01:27:36.653Z,12.17
2019-05-26T01:30:09.252Z,12.23
2019-05-26T01:32:37.905Z,12.33
2019-05-26T01:35:08.209Z,12.83
2019-05-26T01:37:38.332Z,10.90
2019-05-26T01:40:08.252Z,13.77
2019-05-26T01:42:36.956Z,14.37
2019-05-26T01:45:07.736Z,13.50
2019-05-26T01:47:36.311Z,11.20
2019-05-26T01:50:08.846Z,12.03
2019-05-26T01:52:37.509Z,11.53
2019-05-26T01:55:07.344Z,17.47
2019-05-26T01:57:36.025Z,10.17
2019-05-26T02:00:06.968Z,13.50
2019-05-26T02:02:35.715Z,11.90
2019-05-26T02:05:05.361Z,8.53
2019-05-26T02:07:33.936Z,9.07
2019-05-26T02:10:02.600Z,9.93
2019-05-26T02:12:31.163Z,13.40
2019-05-26T02:14:59.759Z,11.70
2019-05-26T02:17:28.411Z,11.30
2019-05-26T02:19:57.059Z,16.07
2019-05-26T02:22:25.697Z,8.67
2019-05-26T02:24:54.268Z,10.33
2019-05-26T02:27:22.824Z,8.97
2019-05-26T02:29:51.403Z,9.80
2019-05-26T02:32:20.069Z,12.57
2019-05-26T02:34:48.725Z,10.60
2019-05-26T02:37:17.432Z,11.50
2019-05-26T02:39:46.155Z,12.03
2019-05-26T02:42:14.784Z,14.73
2019-05-26T02:44:43.444Z,14.27
2019-05-26T02:47:12.182Z,13.03
2019-05-26T02:49:40.813Z,14.83
2019-05-26T02:52:09.409Z,9.53
2019-05-26T02:54:38.112Z,12.87
2019-05-26T02:57:12.179Z,11.27
2019-05-26T02:59:40.780Z,12.83
2019-05-26T03:02:09.443Z,14.00
2019-05-26T03:04:39.705Z,13.60
2019-05-26T03:07:09.720Z,12.43
2019-05-26T03:09:41.237Z,11.77
2019-05-26T03:12:09.884Z,14.97
2019-05-26T03:14:41.557Z,12.07
2019-05-26T03:17:10.229Z,16.97
2019-05-26T03:19:41.298Z,11.10
2019-05-26T03:22:11.595Z,13.17
2019-05-26T03:24:43.364Z,13.07
2019-05-26T03:27:11.933Z,15.47
2019-05-26T03:29:40.508Z,12.87
2019-05-26T03:32:09.084Z,14.03
2019-05-26T03:34:37.634Z,11.30
2019-05-26T03:37:06.233Z,14.30
2019-05-26T03:39:44.281Z,14.43
2019-05-26T03:42:05.147Z,13.72
2019-05-26T03:44:33.815Z,11.47
2019-05-26T03:47:02.374Z,11.70
2019-05-26T03:49:30.947Z,12.97
2019-05-26T03:52:00.017Z,13.50
2019-05-26T03:54:28.605Z,14.10
2019-05-26T03:56:57.181Z,9.97
2019-05-26T03:59:26.088Z,9.87
2019-05-26T04:01:57.468Z,9.77
2019-05-26T04:04:25.018Z,10.73
2019-05-26T04:06:53.656Z,13.17
2019-05-26T04:09:22.319Z,8.47
2019-05-26T04:11:50.956Z,10.60
2019-05-26T04:14:19.554Z,11.47
2019-05-26T04:16:48.148Z,11.03
2019-05-26T04:19:16.737Z,12.00
2019-05-26T04:21:45.365Z,8.70
2019-05-26T04:24:13.945Z,8.63
2019-05-26T04:26:42.537Z,9.90
2019-05-26T04:29:11.188Z,11.40
2019-05-26T04:31:39.827Z,9.97
2019-05-26T04:34:08.423Z,11.87
2019-05-26T04:36:37.018Z,11.20
2019-05-26T04:39:07.269Z,12.40
2019-05-26T04:41:35.906Z,12.17
2019-05-26T04:44:04.767Z,9.93
2019-05-26T04:46:33.392Z,12.40
2019-05-26T04:49:01.986Z,13.30
2019-05-26T04:51:30.591Z,10.00
2019-05-26T04:53:59.169Z,10.50
2019-05-26T04:56:27.783Z,13.23
2019-05-26T04:58:56.375Z,10.70
2019-05-26T05:01:25.046Z,12.90
2019-05-26T05:03:53.783Z,12.07
2019-05-26T05:06:22.356Z,11.23
2019-05-26T05:08:50.926Z,11.63
2019-05-26T05:11:19.519Z,7.93
2019-05-26T05:13:48.166Z,10.57
2019-05-26T05:16:17.055Z,8.53
2019-05-26T05:18:45.696Z,11.27
2019-05-26T05:21:14.347Z,13.17
2019-05-26T05:23:43.606Z,9.53
2019-05-26T05:26:12.219Z,11.43
2019-05-26T05:28:40.802Z,16.17
2019-05-26T05:31:09.393Z,9.33
2019-05-26T05:33:38.019Z,9.73
2019-05-26T05:36:06.673Z,11.33
2019-05-26T05:38:35.312Z,12.10
2019-05-26T05:41:03.896Z,10.60
2019-05-26T05:43:32.600Z,8.57
2019-05-26T05:46:01.311Z,11.23
2019-05-26T05:48:29.876Z,8.63
2019-05-26T05:50:58.451Z,9.33
2019-05-26T05:53:27.135Z,10.63
2019-05-26T05:55:55.708Z,11.73
2019-05-26T05:58:24.283Z,10.03
2019-05-26T06:00:52.871Z,8.83
2019-05-26T06:03:21.481Z,6.90
2019-05-26T06:05:50.151Z,9.50
2019-05-26T06:08:19.093Z,9.37
2019-05-26T06:10:48.071Z,11.47
2019-05-26T06:13:16.644Z,9.00
2019-05-26T06:15:45.319Z,9.47
2019-05-26T06:18:14.015Z,8.57
2019-05-26T06:20:42.696Z,8.80
2019-05-26T06:23:11.243Z,8.63
2019-05-26T06:25:39.987Z,11.33
2019-05-26T06:28:08.582Z,9.97
2019-05-26T06:30:37.641Z,6.70
2019-05-26T06:33:06.366Z,9.67
2019-05-26T06:35:35.007Z,8.77
2019-05-26T06:38:03.815Z,8.13
2019-05-26T06:40:32.488Z,12.93
2019-05-26T06:43:01.528Z,8.93
2019-05-26T06:45:30.134Z,9.40
2019-05-26T06:47:58.761Z,6.37
2019-05-26T06:50:27.332Z,9.13
2019-05-26T06:52:55.954Z,8.37
2019-05-26T06:55:24.503Z,7.57
2019-05-26T06:57:53.134Z,7.93
2019-05-26T07:00:22.237Z,6.60
2019-05-26T07:02:50.907Z,9.70
2019-05-26T07:05:19.504Z,6.67
2019-05-26T07:07:48.187Z,8.13
2019-05-26T07:10:17.375Z,6.57
2019-05-26T07:12:45.991Z,6.50
2019-05-26T07:15:15.083Z,9.47
2019-05-26T07:17:43.666Z,5.10
2019-05-26T07:20:12.879Z,7.57
2019-05-26T07:22:41.432Z,8.00
2019-05-26T07:25:11.014Z,10.33
2019-05-26T07:27:39.852Z,9.60
2019-05-26T07:30:09.551Z,4.53
2019-05-26T07:32:38.234Z,11.80
2019-05-26T07:35:07.777Z,6.13
2019-05-26T07:37:36.342Z,7.90
2019-05-26T07:40:06.238Z,6.70
2019-05-26T07:42:35.590Z,7.40
2019-05-26T07:45:08.273Z,6.27
2019-05-26T07:47:36.874Z,5.33
2019-05-26T07:50:07.751Z,7.53
2019-05-26T07:52:36.528Z,5.90
2019-05-26T07:55:06.683Z,6.57
2019-05-26T07:57:35.586Z,5.53
2019-05-26T08:00:06.780Z,3.33
2019-05-26T08:02:35.347Z,5.17
2019-05-26T08:05:06.727Z,9.07
2019-05-26T08:07:35.451Z,4.13
2019-05-26T08:10:06.556Z,6.30
2019-05-26T08:12:35.453Z,7.13
2019-05-26T08:15:05.742Z,5.73
2019-05-26T08:17:34.542Z,6.37
2019-05-26T08:20:05.245Z,8.73
2019-05-26T08:22:33.873Z,5.23
2019-05-26T08:25:02.517Z,7.10
2019-05-26T08:27:31.103Z,7.80
2019-05-26T08:29:59.655Z,9.90
2019-05-26T08:32:28.205Z,6.03
2019-05-26T08:34:56.786Z,7.07
2019-05-26T08:37:25.340Z,5.80
2019-05-26T08:39:55.543Z,7.43
2019-05-26T08:42:28.760Z,9.03
2019-05-26T08:44:54.454Z,7.57
2019-05-26T08:47:23.043Z,7.30
2019-05-26T08:49:51.678Z,6.53
2019-05-26T08:52:20.219Z,6.57
2019-05-26T08:54:48.851Z,3.40
2019-05-26T08:57:17.419Z,7.67
2019-05-26T08:59:45.991Z,7.43
2019-05-26T09:02:14.585Z,5.83
2019-05-26T09:04:43.139Z,6.40
2019-05-26T09:07:11.762Z,10.57
2019-05-26T09:09:40.320Z,7.33
2019-05-26T09:12:08.923Z,6.80
2019-05-26T09:14:37.487Z,10.67
2019-05-26T09:17:06.304Z,10.00
2019-05-26T09:19:34.881Z,6.17
2019-05-26T09:22:03.463Z,7.37
2019-05-26T09:24:32.104Z,5.97
2019-05-26T09:27:00.623Z,8.37
2019-05-26T09:29:29.230Z,7.70
2019-05-26T09:31:57.905Z,10.27
2019-05-26T09:34:26.530Z,6.00
2019-05-26T09:36:57.080Z,9.87
2019-05-26T09:39:25.445Z,3.90
2019-05-26T09:41:54.063Z,5.67
2019-05-26T09:44:22.680Z,7.10
2019-05-26T09:46:51.642Z,7.17
2019-05-26T09:49:20.273Z,6.77
2019-05-26T09:51:48.830Z,5.77
2019-05-26T09:54:17.659Z,5.07
2019-05-26T09:56:46.237Z,7.43
2019-05-26T10:03:22.110Z,7.40
2019-05-26T10:05:50.704Z,7.03
2019-05-26T10:08:19.339Z,7.20
2019-05-26T10:10:48.030Z,8.63
2019-05-26T10:13:30.891Z,7.93
2019-05-26T10:15:46.770Z,9.77
2019-05-26T10:18:15.341Z,8.03
2019-05-26T10:20:44.436Z,8.10
2019-05-26T10:23:13.055Z,5.33
2019-05-26T10:25:41.775Z,8.07
2019-05-26T10:28:10.373Z,8.43
2019-05-26T10:30:38.988Z,9.20
2019-05-26T10:33:08.229Z,6.90
2019-05-26T10:35:36.942Z,7.17
2019-05-26T10:38:05.611Z,7.13
2019-05-26T10:40:34.660Z,7.97
2019-05-26T10:43:03.205Z,6.60
2019-05-26T10:45:34.267Z,8.07
2019-05-26T10:48:02.255Z,10.15
2019-05-26T10:50:30.799Z,6.43
2019-05-26T10:52:59.412Z,4.73
2019-05-26T10:55:28.000Z,5.87
2019-05-26T10:57:56.627Z,6.07
2019-05-26T11:00:25.408Z,6.10
2019-05-26T11:02:53.988Z,4.27
2019-05-26T11:05:22.547Z,3.63
2019-05-26T11:07:51.090Z,6.07
2019-05-26T11:10:20.014Z,6.63
2019-05-26T11:12:48.563Z,5.67
2019-05-26T11:15:17.694Z,6.60
2019-05-26T11:17:46.264Z,6.97
2019-05-26T11:20:15.374Z,6.23
2019-05-26T11:22:43.990Z,5.00
2019-05-26T11:25:14.207Z,7.70
2019-05-26T11:27:42.764Z,7.37
2019-05-26T11:30:13.757Z,5.70
2019-05-26T11:32:42.592Z,5.80
2019-05-26T11:35:11.589Z,5.43
2019-05-26T11:37:40.144Z,5.73
2019-05-26T11:40:09.240Z,3.60
2019-05-26T11:42:37.789Z,3.63
2019-05-26T11:45:07.677Z,6.80
2019-05-26T11:47:36.593Z,6.60
2019-05-26T11:50:09.337Z,4.53
2019-05-26T11:52:37.958Z,5.43
2019-05-26T11:55:11.654Z,6.77
2019-05-26T11:57:40.276Z,6.33
2019-05-26T12:00:11.017Z,6.00
2019-05-26T12:02:40.181Z,4.93
2019-05-26T12:05:11.456Z,5.67
2019-05-26T12:07:40.061Z,6.47
2019-05-26T12:10:13.582Z,5.63
2019-05-26T12:12:39.671Z,4.40
2019-05-26T12:15:09.848Z,6.03
2019-05-26T12:17:39.118Z,3.93
2019-05-26T12:20:08.625Z,5.13
2019-05-26T12:22:37.193Z,4.43
2019-05-26T12:25:09.443Z,4.80
2019-05-26T12:27:38.016Z,6.83
2019-05-26T12:30:08.511Z,5.53
2019-05-26T12:32:37.075Z,7.10
2019-05-26T12:35:08.064Z,4.70
2019-05-26T12:37:36.626Z,3.93
2019-05-26T12:40:08.793Z,5.43
2019-05-26T12:42:37.884Z,5.37
2019-05-26T12:45:08.239Z,6.10
2019-05-26T12:47:36.935Z,4.40
2019-05-26T12:50:07.654Z,4.37
2019-05-26T12:52:36.276Z,4.57
2019-05-26T12:55:09.478Z,5.07
2019-05-26T12:57:37.482Z,5.47
2019-05-26T13:00:08.253Z,4.67
2019-05-26T13:02:36.911Z,4.90
2019-05-26T13:05:08.737Z,7.67
2019-05-26T13:07:37.424Z,5.50
2019-05-26T13:10:07.938Z,6.83
2019-05-26T13:12:36.732Z,7.07
2019-05-26T13:15:10.439Z,4.17
2019-05-26T13:17:39.187Z,5.17
2019-05-26T13:20:09.349Z,5.53
2019-05-26T13:22:38.737Z,6.60
2019-05-26T13:25:10.605Z,6.60
2019-05-26T13:27:39.135Z,7.53
2019-05-26T13:30:10.100Z,6.73
2019-05-26T13:32:38.950Z,6.07
2019-05-26T13:35:08.471Z,6.37
2019-05-26T13:37:37.040Z,5.70
2019-05-26T13:40:07.245Z,8.13
2019-05-26T13:42:36.136Z,6.63
2019-05-26T13:45:21.773Z,5.47
2019-05-26T13:47:39.910Z,7.70
2019-05-26T13:50:10.050Z,7.13
2019-05-26T13:52:38.606Z,6.80
2019-05-26T13:55:11.903Z,6.10
2019-05-26T13:57:40.702Z,7.97
2019-05-26T14:00:11.724Z,4.50
2019-05-26T14:02:40.634Z,4.57
2019-05-26T14:05:11.267Z,6.57
2019-05-26T14:07:40.236Z,7.60
2019-05-26T14:10:10.783Z,4.97
2019-05-26T14:12:39.405Z,8.30
2019-05-26T14:15:10.310Z,6.03
2019-05-26T14:17:39.713Z,5.37
2019-05-26T14:20:09.721Z,5.13
2019-05-26T14:22:38.347Z,6.37
2019-05-26T14:25:08.235Z,5.20
2019-05-26T14:27:36.812Z,7.20
2019-05-26T14:30:08.054Z,5.23
2019-05-26T14:32:36.702Z,7.33
2019-05-26T14:35:06.787Z,6.67
2019-05-26T14:37:35.587Z,5.30
2019-05-26T14:40:07.333Z,6.97
2019-05-26T14:42:35.891Z,7.57
2019-05-26T14:45:06.387Z,5.00
2019-05-26T14:47:34.935Z,7.00
2019-05-26T14:50:05.505Z,4.10
2019-05-26T14:52:34.184Z,5.30
2019-05-26T14:55:02.825Z,5.90
2019-05-26T14:57:31.453Z,7.37
2019-05-26T15:00:00.030Z,4.57
2019-05-26T15:02:28.594Z,6.43
2019-05-26T15:04:57.176Z,5.70
2019-05-26T15:07:25.826Z,6.87
2019-05-26T15:09:54.371Z,4.70
2019-05-26T15:12:22.950Z,5.00
2019-05-26T15:14:51.695Z,6.53
2019-05-26T15:17:20.323Z,5.50
2019-05-26T15:19:48.814Z,5.50
2019-05-26T15:22:17.446Z,5.93
2019-05-26T15:24:45.999Z,6.83
2019-05-26T15:27:14.555Z,5.83
2019-05-26T15:29:43.135Z,6.47
2019-05-26T15:32:11.781Z,5.80
2019-05-26T15:34:41.385Z,2.90
2019-05-26T15:37:10.100Z,4.95
2019-05-26T15:39:38.821Z,4.63
2019-05-26T15:42:09.235Z,6.00
2019-05-26T15:44:38.367Z,3.87
2019-05-26T15:47:06.936Z,5.57
2019-05-26T15:49:35.483Z,5.83
2019-05-26T15:52:04.182Z,6.37
2019-05-26T15:54:32.737Z,7.50
2019-05-26T15:57:01.364Z,6.37
2019-05-26T15:59:30.078Z,7.30
2019-05-26T16:01:58.680Z,4.77
2019-05-26T16:04:27.233Z,6.63
2019-05-26T16:06:55.915Z,5.00
2019-05-26T16:09:24.549Z,5.23
2019-05-26T16:11:53.082Z,6.67
2019-05-26T16:14:21.791Z,5.13
2019-05-26T16:16:51.389Z,4.93
2019-05-26T16:19:20.478Z,5.63
2019-05-26T16:21:49.141Z,3.63
2019-05-26T16:24:17.779Z,4.73
2019-05-26T16:26:46.448Z,5.33
2019-05-26T16:29:15.684Z,5.37
2019-05-26T16:31:44.205Z,5.30
2019-05-26T16:34:12.796Z,6.77
2019-05-26T16:36:41.346Z,6.40
2019-05-26T16:39:10.011Z,6.13
2019-05-26T16:41:38.664Z,6.53
2019-05-26T16:44:07.375Z,6.90
2019-05-26T16:46:35.958Z,8.17
2019-05-26T16:49:05.258Z,6.20
2019-05-26T16:51:33.896Z,8.83
2019-05-26T16:54:02.465Z,6.43
2019-05-26T16:56:31.089Z,8.67
2019-05-26T16:58:59.666Z,8.20
2019-05-26T17:01:28.220Z,7.73
2019-05-26T17:03:56.772Z,5.73
2019-05-26T17:06:25.375Z,7.93
2019-05-26T17:08:53.949Z,9.03
2019-05-26T17:11:22.530Z,8.63
2019-05-26T17:13:51.446Z,6.50
2019-05-26T17:16:22.843Z,6.90
2019-05-26T17:18:51.469Z,7.63
2019-05-26T17:21:20.403Z,6.93
2019-05-26T17:26:58.339Z,7.23
2019-05-26T17:29:26.995Z,7.93
2019-05-26T17:31:55.555Z,6.30
2019-05-26T17:34:24.267Z,9.20
2019-05-26T17:36:52.937Z,7.30
2019-05-26T17:39:21.552Z,6.17
2019-05-26T17:41:50.120Z,7.33
2019-05-26T17:44:18.691Z,6.33
2019-05-26T17:46:47.284Z,6.83
2019-05-26T17:49:15.849Z,5.53
2019-05-26T17:51:44.403Z,6.80
2019-05-26T17:54:13.004Z,7.03
2019-05-26T17:56:41.539Z,6.30
2019-05-26T17:59:10.108Z,6.97
2019-05-26T18:01:38.683Z,7.37
2019-05-26T18:04:07.289Z,8.67
2019-05-26T18:06:35.836Z,6.13
2019-05-26T18:09:06.338Z,6.77
2019-05-26T18:11:35.017Z,8.17
2019-05-26T18:14:03.644Z,7.53
2019-05-26T18:16:32.216Z,6.87
2019-05-26T18:19:00.793Z,6.07
2019-05-26T18:21:29.364Z,6.17
2019-05-26T18:23:57.910Z,9.17
2019-05-26T18:26:26.598Z,7.93
2019-05-26T18:28:55.160Z,7.87
2019-05-26T18:31:23.801Z,8.37
2019-05-26T18:33:52.359Z,6.80
2019-05-26T18:36:21.019Z,8.17
2019-05-26T18:38:49.566Z,7.60
2019-05-26T18:41:18.167Z,6.90
2019-05-26T18:43:46.742Z,7.10
2019-05-26T18:46:15.402Z,5.87
2019-05-26T18:48:44.049Z,7.07
2019-05-26T18:51:12.684Z,5.73
2019-05-26T18:53:41.250Z,7.47
2019-05-26T18:56:09.884Z,6.30
2019-05-26T18:58:38.513Z,6.10
2019-05-26T19:01:07.515Z,8.40
2019-05-26T19:03:36.518Z,6.70
2019-05-26T19:06:05.234Z,7.63
2019-05-26T19:08:33.795Z,6.03
2019-05-26T19:11:02.374Z,10.03
2019-05-26T19:13:31.380Z,7.57
2019-05-26T19:15:59.914Z,7.77
2019-05-26T19:18:28.653Z,7.57
2019-05-26T19:20:57.177Z,7.53
2019-05-26T19:23:26.068Z,8.63
2019-05-26T19:25:55.367Z,8.33
2019-05-26T19:28:24.262Z,8.90
2019-05-26T19:30:53.090Z,7.43
2019-05-26T19:33:22.087Z,7.23
2019-05-26T19:35:50.896Z,7.97
2019-05-26T19:38:19.860Z,7.80
2019-05-26T19:40:48.791Z,7.37
2019-05-26T19:43:17.364Z,8.17
2019-05-26T19:45:46.674Z,8.33
2019-05-26T19:48:15.243Z,7.37
2019-05-26T19:51:03.142Z,9.67
2019-05-26T19:53:31.975Z,10.40
2019-05-26T19:56:00.530Z,8.73
2019-05-26T19:58:29.082Z,8.20
2019-05-26T20:00:57.852Z,8.63
2019-05-26T20:03:26.382Z,6.70
2019-05-26T20:05:54.964Z,8.37
2019-05-26T20:08:23.706Z,7.40
2019-05-26T20:10:52.271Z,6.73
2019-05-26T20:13:20.826Z,6.33
2019-05-26T20:15:49.404Z,7.03
2019-05-26T20:18:19.015Z,9.23
2019-05-26T20:20:47.651Z,8.27
2019-05-26T20:23:16.264Z,10.77
2019-05-26T20:25:44.898Z,9.17
2019-05-26T20:28:13.575Z,6.70
2019-05-26T20:30:42.203Z,9.70
2019-05-26T20:33:15.417Z,7.83
2019-05-26T20:35:43.967Z,8.40
2019-05-26T20:38:12.584Z,7.00
2019-05-26T20:40:41.179Z,8.40
2019-05-26T20:43:09.750Z,8.10
2019-05-26T20:45:38.245Z,7.33
2019-05-26T20:48:06.899Z,7.47
2019-05-26T20:50:35.744Z,8.83
2019-05-26T20:53:04.412Z,6.23
2019-05-26T20:55:32.990Z,9.10
2019-05-26T20:58:01.575Z,6.33
2019-05-26T21:00:30.225Z,9.33
2019-05-26T21:02:58.838Z,5.40
2019-05-26T21:05:27.491Z,8.13
2019-05-26T21:07:56.044Z,7.37
2019-05-26T21:10:24.694Z,6.97
2019-05-26T21:12:53.612Z,8.50
2019-05-26T21:15:22.238Z,9.20
2019-05-26T21:17:50.858Z,7.43
2019-05-26T21:20:20.029Z,7.20
2019-05-26T21:22:48.565Z,7.80
2019-05-26T21:25:17.236Z,7.97
2019-05-26T21:27:46.019Z,6.50
2019-05-26T21:30:16.951Z,7.93
2019-05-26T21:32:45.508Z,6.63
2019-05-26T21:35:14.241Z,8.63
2019-05-26T21:37:42.992Z,8.70
2019-05-26T21:40:11.913Z,6.63
2019-05-26T21:42:40.456Z,6.87
2019-05-26T21:45:09.819Z,8.20
2019-05-26T21:47:38.442Z,6.63
2019-05-26T21:50:09.224Z,8.80
2019-05-26T21:52:37.964Z,8.53
2019-05-26T21:55:07.176Z,6.50
2019-05-26T21:57:35.785Z,6.70
2019-05-26T22:00:08.069Z,7.50
2019-05-26T22:02:36.648Z,6.03
2019-05-26T22:05:07.874Z,8.40
2019-05-26T22:07:36.456Z,8.50
2019-05-26T22:10:06.578Z,9.23
2019-05-26T22:12:35.287Z,6.53
2019-05-26T22:15:06.278Z,9.87
2019-05-26T22:17:34.826Z,7.93
2019-05-26T22:20:05.397Z,9.97
2019-05-26T22:22:33.970Z,9.00
2019-05-26T22:25:02.819Z,8.07
2019-05-26T22:27:31.607Z,9.23
2019-05-26T22:30:00.202Z,11.00
2019-05-26T22:32:30.068Z,7.93
2019-05-26T22:34:58.620Z,7.07
2019-05-26T22:37:27.500Z,9.03
2019-05-26T22:39:56.333Z,7.13
2019-05-26T22:42:24.975Z,8.30
2019-05-26T22:44:53.505Z,8.90
2019-05-26T22:47:22.056Z,5.23
2019-05-26T22:49:50.635Z,9.17
2019-05-26T22:52:19.282Z,9.10
2019-05-26T22:54:47.862Z,7.57
2019-05-26T22:57:16.485Z,8.33
2019-05-26T22:59:45.043Z,6.10
2019-05-26T23:02:13.617Z,9.07
2019-05-26T23:04:42.216Z,8.97
2019-05-26T23:07:10.778Z,9.60
2019-05-26T23:09:39.332Z,7.47
2019-05-26T23:12:08.007Z,8.20
2019-05-26T23:14:36.561Z,6.33
2019-05-26T23:17:05.305Z,6.70
2019-05-26T23:19:33.960Z,7.43
2019-05-26T23:22:02.516Z,7.37
2019-05-26T23:24:31.490Z,8.73
2019-05-26T23:27:00.686Z,9.27
2019-05-26T23:29:29.311Z,7.83
2019-05-26T23:31:57.861Z,8.67
2019-05-26T23:34:26.677Z,10.83
2019-05-26T23:36:55.240Z,7.70
2019-05-26T23:39:23.827Z,11.53
2019-05-26T23:41:52.399Z,9.17
2019-05-26T23:44:20.955Z,9.17
2019-05-26T23:46:49.506Z,7.13
2019-05-26T23:49:18.093Z,8.03
2019-05-26T23:51:46.634Z,7.33
2019-05-26T23:54:15.186Z,8.53
2019-05-26T23:56:43.796Z,6.93
2019-05-26T23:59:12.346Z,9.57
